createdAt,value
2023-01-26T00:01:17.430Z,3.16
2023-01-26T00:03:44.997Z,3.16
2023-01-26T00:06:15.201Z,3.16
2023-01-26T00:08:48.592Z,3.14
2023-01-26T00:11:17.878Z,3.16
2023-01-26T00:13:44.893Z,3.20
2023-01-26T00:16:15.619Z,3.29
2023-01-26T00:18:43.157Z,3.22
2023-01-26T00:21:21.151Z,3.18
2023-01-26T00:23:49.343Z,3.17
2023-01-26T00:26:18.418Z,3.21
2023-01-26T00:28:45.058Z,3.37
2023-01-26T00:31:20.362Z,3.24
2023-01-26T00:33:47.063Z,3.22
2023-01-26T00:36:13.740Z,3.23
2023-01-26T00:38:40.494Z,3.23
2023-01-26T00:41:09.313Z,3.22
2023-01-26T00:43:35.918Z,3.15
2023-01-26T00:46:02.530Z,3.21
2023-01-26T00:48:29.102Z,3.23
2023-01-26T00:50:55.688Z,3.10
2023-01-26T00:53:22.237Z,3.17
2023-01-26T00:55:48.857Z,3.21
2023-01-26T00:58:15.441Z,3.13
2023-01-26T01:00:42.084Z,3.09
2023-01-26T01:03:08.733Z,3.07
2023-01-26T01:05:35.667Z,3.11
2023-01-26T01:08:02.540Z,2.88
2023-01-26T01:10:29.452Z,3.11
2023-01-26T01:12:56.614Z,3.08
2023-01-26T01:15:24.321Z,3.13
2023-01-26T01:17:51.178Z,2.89
2023-01-26T01:20:17.887Z,2.92
2023-01-26T01:22:46.550Z,3.01
2023-01-26T01:25:13.309Z,2.94
2023-01-26T01:27:39.953Z,2.73
2023-01-26T01:30:08.236Z,2.68
2023-01-26T01:32:36.185Z,2.89
2023-01-26T01:35:03.120Z,2.70
2023-01-26T01:37:30.567Z,2.91
2023-01-26T01:39:57.219Z,2.86
2023-01-26T01:42:24.342Z,2.88
2023-01-26T01:45:29.451Z,2.81
2023-01-26T01:47:59.301Z,3.00
2023-01-26T01:50:27.521Z,2.93
2023-01-26T01:52:55.624Z,3.09
2023-01-26T01:55:24.670Z,3.06
2023-01-26T01:57:55.531Z,3.02
2023-01-26T02:00:23.724Z,3.00
2023-01-26T02:03:11.354Z,3.15
2023-01-26T02:05:59.591Z,3.08
2023-01-26T02:08:33.763Z,3.06
2023-01-26T02:11:10.791Z,3.05
2023-01-26T02:13:37.806Z,2.95
2023-01-26T02:16:04.868Z,3.06
2023-01-26T02:18:31.603Z,2.90
2023-01-26T02:21:04.805Z,2.81
2023-01-26T02:27:00.736Z,2.83
2023-01-26T02:29:28.864Z,2.83
2023-01-26T02:31:56.291Z,2.93
2023-01-26T02:34:25.198Z,2.92
2023-01-26T02:36:59.183Z,2.85
2023-01-26T02:39:48.779Z,2.84
2023-01-26T02:42:34.973Z,2.89
2023-01-26T02:45:01.639Z,2.77
2023-01-26T02:47:29.996Z,2.71
2023-01-26T02:49:58.271Z,2.62
2023-01-26T02:52:27.892Z,2.71
2023-01-26T02:55:18.218Z,2.69
2023-01-26T02:57:45.734Z,2.55
2023-01-26T03:00:19.235Z,2.41
2023-01-26T03:02:47.778Z,2.74
2023-01-26T03:05:15.154Z,2.77
2023-01-26T03:07:42.215Z,2.55
2023-01-26T03:10:10.504Z,2.70
2023-01-26T03:12:37.619Z,2.68
2023-01-26T03:15:24.041Z,2.14
2023-01-26T03:18:12.054Z,2.50
2023-01-26T03:20:57.968Z,2.61
2023-01-26T03:23:43.345Z,2.50
2023-01-26T03:26:31.074Z,2.49
2023-01-26T03:28:57.733Z,2.51
2023-01-26T03:31:24.445Z,2.40
2023-01-26T03:33:52.543Z,2.44
2023-01-26T03:36:19.367Z,2.43
2023-01-26T03:38:46.070Z,2.47
2023-01-26T03:41:31.800Z,2.31
2023-01-26T03:44:18.766Z,2.50
2023-01-26T03:47:04.259Z,2.73
2023-01-26T03:49:49.466Z,2.81
2023-01-26T03:52:34.830Z,2.75
2023-01-26T03:55:21.148Z,2.66
2023-01-26T03:57:48.735Z,2.71
2023-01-26T04:00:15.943Z,2.51
2023-01-26T04:03:03.581Z,2.41
2023-01-26T04:05:48.872Z,2.37
2023-01-26T04:08:24.577Z,2.52
2023-01-26T04:10:57.092Z,2.70
2023-01-26T04:13:43.755Z,2.71
2023-01-26T04:16:36.065Z,2.63
2023-01-26T04:19:21.389Z,2.67
2023-01-26T04:21:48.045Z,2.67
2023-01-26T04:24:22.143Z,2.61
2023-01-26T04:26:53.269Z,2.65
2023-01-26T04:29:24.271Z,2.74
2023-01-26T04:31:51.407Z,2.74
2023-01-26T04:34:20.699Z,2.68
2023-01-26T04:36:47.427Z,2.50
2023-01-26T04:39:15.899Z,2.62
2023-01-26T04:41:47.079Z,2.70
2023-01-26T04:44:16.799Z,2.66
2023-01-26T04:46:43.530Z,2.55
2023-01-26T04:49:12.957Z,2.56
2023-01-26T04:51:39.906Z,2.65
2023-01-26T04:54:06.765Z,2.67
2023-01-26T04:56:37.081Z,2.71
2023-01-26T04:59:06.980Z,2.59
2023-01-26T05:01:35.810Z,2.65
2023-01-26T05:04:06.142Z,2.64
2023-01-26T05:06:33.963Z,2.61
2023-01-26T05:09:00.760Z,2.55
2023-01-26T05:11:28.221Z,2.65
2023-01-26T05:14:13.309Z,2.54
2023-01-26T05:17:18.206Z,2.60
2023-01-26T05:19:59.440Z,2.51
2023-01-26T05:22:40.010Z,2.70
2023-01-26T05:25:29.649Z,2.78
2023-01-26T05:28:02.006Z,2.76
2023-01-26T05:30:29.256Z,2.83
2023-01-26T05:33:01.571Z,2.69
2023-01-26T05:35:28.535Z,2.65
2023-01-26T05:37:56.192Z,2.67
2023-01-26T05:40:24.767Z,2.64
2023-01-26T05:42:53.178Z,2.64
2023-01-26T05:48:08.709Z,2.61
2023-01-26T05:50:35.563Z,2.71
2023-01-26T05:53:13.844Z,2.58
2023-01-26T05:55:40.592Z,2.57
2023-01-26T05:58:07.403Z,2.65
2023-01-26T06:00:34.044Z,2.75
2023-01-26T06:03:07.609Z,2.82
2023-01-26T06:05:34.686Z,2.79
2023-01-26T06:08:07.643Z,2.79
2023-01-26T06:10:48.410Z,2.76
2023-01-26T06:13:44.068Z,2.75
2023-01-26T06:16:20.914Z,2.77
2023-01-26T06:18:49.878Z,2.76
2023-01-26T06:21:17.711Z,2.81
2023-01-26T06:23:44.474Z,2.69
2023-01-26T06:26:11.997Z,2.74
2023-01-26T06:28:39.180Z,2.85
2023-01-26T06:31:08.191Z,2.82
2023-01-26T06:33:37.048Z,2.70
2023-01-26T06:36:06.110Z,2.73
2023-01-26T06:38:33.151Z,2.66
2023-01-26T06:41:05.174Z,2.69
2023-01-26T06:43:34.218Z,2.69
2023-01-26T06:46:02.546Z,2.60
2023-01-26T06:48:32.180Z,2.77
2023-01-26T06:51:19.406Z,2.78
2023-01-26T06:53:57.920Z,2.61
2023-01-26T06:56:32.677Z,2.54
2023-01-26T06:59:15.546Z,2.61
2023-01-26T07:02:20.720Z,2.57
2023-01-26T07:04:48.419Z,2.67
2023-01-26T07:07:15.460Z,2.49
2023-01-26T07:09:42.390Z,2.49
2023-01-26T07:12:09.442Z,2.63
2023-01-26T07:14:36.162Z,2.62
2023-01-26T07:17:03.126Z,2.69
2023-01-26T07:19:31.388Z,2.63
2023-01-26T07:21:58.155Z,2.62
2023-01-26T07:24:25.291Z,2.57
2023-01-26T07:26:52.167Z,2.49
2023-01-26T07:29:19.038Z,2.55
2023-01-26T07:31:45.786Z,2.65
2023-01-26T07:34:12.909Z,2.53
2023-01-26T07:36:39.913Z,2.41
2023-01-26T07:39:08.548Z,2.40
2023-01-26T07:41:35.526Z,2.43
2023-01-26T07:44:12.584Z,2.48
2023-01-26T07:46:39.992Z,2.58
2023-01-26T07:49:07.110Z,2.47
2023-01-26T07:51:33.992Z,2.42
2023-01-26T07:54:00.701Z,2.53
2023-01-26T07:56:27.304Z,2.58
2023-01-26T07:58:55.138Z,2.38
2023-01-26T08:01:22.251Z,2.42
2023-01-26T08:03:53.517Z,2.52
2023-01-26T08:06:21.251Z,2.49
2023-01-26T08:08:51.114Z,2.52
2023-01-26T08:11:19.341Z,2.41
2023-01-26T08:13:45.973Z,2.44
2023-01-26T08:16:13.106Z,2.37
2023-01-26T08:18:44.985Z,2.41
2023-01-26T08:21:13.499Z,2.57
2023-01-26T08:23:40.374Z,2.48
2023-01-26T08:26:09.861Z,2.47
2023-01-26T08:28:36.968Z,2.47
2023-01-26T08:31:12.061Z,2.47
2023-01-26T08:33:40.146Z,2.46
2023-01-26T08:36:10.483Z,2.29
2023-01-26T08:38:37.264Z,2.55
2023-01-26T08:41:04.770Z,2.45
2023-01-26T08:43:31.371Z,2.52
2023-01-26T08:45:58.372Z,2.51
2023-01-26T08:48:25.177Z,2.45
2023-01-26T08:51:03.259Z,2.42
2023-01-26T08:53:32.381Z,2.37
2023-01-26T08:56:03.007Z,2.34
2023-01-26T08:58:29.973Z,2.66
2023-01-26T09:00:56.599Z,2.59
2023-01-26T09:03:23.245Z,2.58
2023-01-26T09:05:49.898Z,2.58
2023-01-26T09:08:16.544Z,2.61
2023-01-26T09:10:45.321Z,2.64
2023-01-26T09:13:11.984Z,2.67
2023-01-26T09:15:38.907Z,2.53
2023-01-26T09:18:05.847Z,2.50
2023-01-26T09:20:32.555Z,2.67
2023-01-26T09:22:59.159Z,2.70
2023-01-26T09:25:25.850Z,2.65
2023-01-26T09:27:52.565Z,2.52
2023-01-26T09:30:19.254Z,2.60
2023-01-26T09:32:45.961Z,2.71
2023-01-26T09:35:14.498Z,2.66
2023-01-26T09:37:43.107Z,2.66
2023-01-26T09:40:18.143Z,2.48
2023-01-26T09:42:59.873Z,2.41
2023-01-26T09:45:40.848Z,2.48
2023-01-26T09:48:19.706Z,2.53
2023-01-26T09:51:13.262Z,2.68
2023-01-26T09:54:19.069Z,2.80
2023-01-26T09:56:45.746Z,2.75
2023-01-26T09:59:28.041Z,2.88
2023-01-26T10:02:17.815Z,2.56
2023-01-26T10:04:49.308Z,2.51
2023-01-26T10:07:15.964Z,2.77
2023-01-26T10:09:50.893Z,2.77
2023-01-26T10:12:28.521Z,2.83
2023-01-26T10:15:02.894Z,2.87
2023-01-26T10:17:35.146Z,2.89
2023-01-26T10:20:17.830Z,2.98
2023-01-26T10:22:47.441Z,2.86
2023-01-26T10:25:33.699Z,2.75
2023-01-26T10:28:07.231Z,2.91
2023-01-26T10:30:33.913Z,2.84
2023-01-26T10:33:00.623Z,2.52
2023-01-26T10:35:27.460Z,2.82
2023-01-26T10:37:54.204Z,2.89
2023-01-26T10:40:21.454Z,2.89
2023-01-26T10:42:59.275Z,2.90
2023-01-26T10:45:31.681Z,2.97
2023-01-26T10:48:16.273Z,2.82
2023-01-26T10:50:43.001Z,2.88
2023-01-26T10:53:17.278Z,2.92
2023-01-26T10:55:43.897Z,2.90
2023-01-26T10:58:41.688Z,2.82
2023-01-26T11:01:15.465Z,2.83
2023-01-26T11:03:56.980Z,2.91
2023-01-26T11:06:28.124Z,2.88
2023-01-26T11:09:07.844Z,2.71
2023-01-26T11:11:34.413Z,2.78
2023-01-26T11:14:21.441Z,2.80
2023-01-26T11:16:55.691Z,2.73
2023-01-26T11:19:44.212Z,2.67
2023-01-26T11:22:20.740Z,2.81
2023-01-26T11:25:02.947Z,2.81
2023-01-26T11:27:43.271Z,2.76
2023-01-26T11:30:23.199Z,2.96
2023-01-26T11:32:55.685Z,2.81
2023-01-26T11:35:40.656Z,2.66
2023-01-26T11:38:31.847Z,2.90
2023-01-26T11:41:24.883Z,2.87
2023-01-26T11:44:28.165Z,2.70
2023-01-26T11:47:03.302Z,2.78
2023-01-26T11:50:02.583Z,2.90
2023-01-26T11:52:55.975Z,2.68
2023-01-26T11:55:48.326Z,2.86
2023-01-26T11:58:32.899Z,2.97
2023-01-26T12:01:03.306Z,3.03
2023-01-26T12:03:47.552Z,2.98
2023-01-26T12:06:20.257Z,2.87
2023-01-26T12:08:59.982Z,2.96
2023-01-26T12:11:40.854Z,2.91
2023-01-26T12:14:21.270Z,2.98
2023-01-26T12:17:17.979Z,3.03
2023-01-26T12:20:23.069Z,2.99
2023-01-26T12:22:59.308Z,2.98
2023-01-26T12:25:32.905Z,2.43
2023-01-26T12:28:12.973Z,2.64
2023-01-26T12:31:07.979Z,2.71
2023-01-26T12:33:36.277Z,2.85
2023-01-26T12:36:33.334Z,2.73
2023-01-26T12:39:13.229Z,2.82
2023-01-26T12:42:17.278Z,2.71
2023-01-26T12:44:51.880Z,2.80
2023-01-26T12:47:34.358Z,2.88
2023-01-26T12:50:30.171Z,2.90
2023-01-26T12:53:21.782Z,2.94
2023-01-26T12:56:14.449Z,2.97
2023-01-26T12:58:45.281Z,2.91
2023-01-26T13:01:16.070Z,2.68
2023-01-26T13:03:45.991Z,2.31
2023-01-26T13:06:12.546Z,2.75
2023-01-26T13:08:51.512Z,2.81
2023-01-26T13:11:56.991Z,2.73
2023-01-26T13:14:29.173Z,2.81
2023-01-26T13:16:56.607Z,2.62
2023-01-26T13:19:41.946Z,2.94
2023-01-26T13:22:24.034Z,2.91
2023-01-26T13:24:56.705Z,2.78
2023-01-26T13:27:30.899Z,2.86
2023-01-26T13:29:57.715Z,2.73
2023-01-26T13:32:24.371Z,2.74
2023-01-26T13:35:00.321Z,2.85
2023-01-26T13:37:53.365Z,2.82
2023-01-26T13:40:25.177Z,2.69
2023-01-26T13:43:06.081Z,2.58
2023-01-26T13:45:43.971Z,2.73
2023-01-26T13:48:16.460Z,2.61
2023-01-26T13:50:43.375Z,2.59
2023-01-26T13:53:28.145Z,2.68
2023-01-26T13:55:58.899Z,2.60
2023-01-26T13:58:26.294Z,2.59
2023-01-26T14:00:59.493Z,2.59
2023-01-26T14:03:26.380Z,2.84
2023-01-26T14:06:00.591Z,2.50
2023-01-26T14:08:27.686Z,2.61
2023-01-26T14:10:55.523Z,2.55
2023-01-26T14:13:38.055Z,2.79
2023-01-26T14:16:06.385Z,2.78
2023-01-26T14:18:33.303Z,2.69
2023-01-26T14:21:05.766Z,2.56
2023-01-26T14:23:36.799Z,2.53
2023-01-26T14:26:10.755Z,2.54
2023-01-26T14:28:42.581Z,2.42
2023-01-26T14:31:26.527Z,2.41
2023-01-26T14:33:57.619Z,2.28
2023-01-26T14:36:27.732Z,2.32
2023-01-26T14:38:55.988Z,2.53
2023-01-26T14:41:31.686Z,2.36
2023-01-26T14:44:01.846Z,2.44
2023-01-26T14:46:38.623Z,2.60
2023-01-26T14:49:18.492Z,2.65
2023-01-26T14:51:47.423Z,2.30
2023-01-26T14:54:32.222Z,2.31
2023-01-26T14:57:00.305Z,2.36
2023-01-26T14:59:37.507Z,2.55
2023-01-26T15:02:17.742Z,2.57
2023-01-26T15:04:50.511Z,2.52
2023-01-26T15:07:37.468Z,2.57
2023-01-26T15:10:26.181Z,2.56
2023-01-26T15:13:07.026Z,2.29
2023-01-26T15:15:39.695Z,2.56
2023-01-26T15:18:18.817Z,2.42
2023-01-26T15:21:00.695Z,2.45
2023-01-26T15:23:35.930Z,2.41
2023-01-26T15:26:30.283Z,2.46
2023-01-26T15:29:07.050Z,2.59
2023-01-26T15:31:39.680Z,2.66
2023-01-26T15:34:06.668Z,2.34
2023-01-26T15:36:50.731Z,2.42
2023-01-26T15:39:19.537Z,2.60
2023-01-26T15:42:01.693Z,2.54
2023-01-26T15:44:28.406Z,2.27
2023-01-26T15:46:56.487Z,2.42
2023-01-26T15:49:23.435Z,2.58
2023-01-26T15:51:51.178Z,2.52
2023-01-26T15:54:19.181Z,2.61
2023-01-26T15:56:45.826Z,2.57
2023-01-26T15:59:12.472Z,2.35
2023-01-26T16:01:39.270Z,2.21
2023-01-26T16:04:05.880Z,2.40
2023-01-26T16:06:33.542Z,2.54
2023-01-26T16:09:00.188Z,2.53
2023-01-26T16:11:29.915Z,2.60
2023-01-26T16:14:03.376Z,2.60
2023-01-26T16:16:31.998Z,2.45
2023-01-26T16:18:58.968Z,2.38
2023-01-26T16:21:33.023Z,2.53
2023-01-26T16:24:01.259Z,2.48
2023-01-26T16:26:28.964Z,2.49
2023-01-26T16:28:56.247Z,2.41
2023-01-26T16:31:31.570Z,2.41
2023-01-26T16:34:00.083Z,2.42
2023-01-26T16:36:26.800Z,2.25
2023-01-26T16:38:53.448Z,2.31
2023-01-26T16:41:20.055Z,2.37
2023-01-26T16:43:46.700Z,2.29
2023-01-26T16:46:13.286Z,2.27
2023-01-26T16:48:40.657Z,2.30
2023-01-26T16:51:29.385Z,2.54
2023-01-26T16:53:56.879Z,2.54
2023-01-26T16:56:24.686Z,2.49
2023-01-26T16:58:51.717Z,2.51
2023-01-26T17:01:22.384Z,2.50
2023-01-26T17:03:49.863Z,2.35
2023-01-26T17:06:18.074Z,2.41
2023-01-26T17:08:45.383Z,2.36
2023-01-26T17:11:22.876Z,2.25
2023-01-26T17:13:49.939Z,2.18
2023-01-26T17:16:19.646Z,2.34
2023-01-26T17:18:47.415Z,2.44
2023-01-26T17:21:16.289Z,2.47
2023-01-26T17:23:46.294Z,2.57
2023-01-26T17:26:15.356Z,2.44
2023-01-26T17:28:46.438Z,2.48
2023-01-26T17:31:17.645Z,2.42
2023-01-26T17:33:46.790Z,2.25
2023-01-26T17:36:15.260Z,2.41
2023-01-26T17:38:42.452Z,2.43
2023-01-26T17:41:09.594Z,2.26
2023-01-26T17:43:36.441Z,2.43
2023-01-26T17:46:14.711Z,2.34
2023-01-26T17:48:44.207Z,2.46
2023-01-26T17:51:17.691Z,2.30
2023-01-26T17:53:46.659Z,2.23
2023-01-26T17:56:18.988Z,2.27
2023-01-26T17:58:54.261Z,2.36
2023-01-26T18:01:23.269Z,2.34
2023-01-26T18:03:50.045Z,2.57
2023-01-26T18:06:17.452Z,2.54
2023-01-26T18:08:44.117Z,2.57
2023-01-26T18:11:13.068Z,2.49
2023-01-26T18:13:40.054Z,2.35
2023-01-26T18:16:08.064Z,2.49
2023-01-26T18:18:35.079Z,2.31
2023-01-26T18:21:19.824Z,2.34
2023-01-26T18:23:47.506Z,2.43
2023-01-26T18:26:16.017Z,2.59
2023-01-26T18:28:43.998Z,2.47
2023-01-26T18:31:19.722Z,2.07
2023-01-26T18:33:47.025Z,2.28
2023-01-26T18:36:16.080Z,2.31
2023-01-26T18:38:44.564Z,2.29
2023-01-26T18:41:13.265Z,2.44
2023-01-26T18:43:40.232Z,2.29
2023-01-26T18:46:07.585Z,2.44
2023-01-26T18:48:35.263Z,2.32
2023-01-26T18:51:02.717Z,2.05
2023-01-26T18:53:29.891Z,2.32
2023-01-26T18:56:12.425Z,2.24
2023-01-26T18:58:40.076Z,2.12
2023-01-26T19:01:13.140Z,2.08
2023-01-26T19:03:42.248Z,2.24
2023-01-26T19:06:09.565Z,2.18
2023-01-26T19:08:36.204Z,2.29
2023-01-26T19:11:07.964Z,2.31
2023-01-26T19:13:34.664Z,2.52
2023-01-26T19:16:01.836Z,2.25
2023-01-26T19:18:28.803Z,2.35
2023-01-26T19:20:57.775Z,2.40
2023-01-26T19:23:24.778Z,2.33
2023-01-26T19:25:51.541Z,2.45
2023-01-26T19:28:18.548Z,2.19
2023-01-26T19:30:45.171Z,2.14
2023-01-26T19:33:23.928Z,2.16
2023-01-26T19:35:52.494Z,2.17
2023-01-26T19:38:21.031Z,2.28
2023-01-26T19:40:49.376Z,2.26
2023-01-26T19:43:18.915Z,2.02
2023-01-26T19:45:54.200Z,2.19
2023-01-26T19:48:23.358Z,2.12
2023-01-26T19:50:59.172Z,2.27
2023-01-26T19:53:26.980Z,2.20
2023-01-26T19:55:53.708Z,2.22
2023-01-26T19:58:20.341Z,2.28
2023-01-26T20:00:46.947Z,2.22
2023-01-26T20:03:13.553Z,2.01
2023-01-26T20:05:40.301Z,2.23
2023-01-26T20:08:06.890Z,2.22
2023-01-26T20:10:33.675Z,2.38
2023-01-26T20:13:01.234Z,2.49
2023-01-26T20:15:27.976Z,2.42
2023-01-26T20:17:54.552Z,2.34
2023-01-26T20:20:21.196Z,2.31
2023-01-26T20:22:47.754Z,2.35
2023-01-26T20:25:14.558Z,2.34
2023-01-26T20:27:41.209Z,2.26
2023-01-26T20:30:08.796Z,2.27
2023-01-26T20:32:35.551Z,2.24
2023-01-26T20:35:02.439Z,2.12
2023-01-26T20:37:30.044Z,2.25
2023-01-26T20:39:56.713Z,2.16
2023-01-26T20:42:23.442Z,2.23
2023-01-26T20:44:50.864Z,2.20
2023-01-26T20:47:17.694Z,2.21
2023-01-26T20:49:44.400Z,2.08
2023-01-26T20:52:11.151Z,2.17
2023-01-26T20:54:37.823Z,2.20
2023-01-26T20:57:04.433Z,2.33
2023-01-26T20:59:31.074Z,2.38
2023-01-26T21:01:57.896Z,2.25
2023-01-26T21:04:24.988Z,2.29
2023-01-26T21:06:51.622Z,2.38
2023-01-26T21:09:18.635Z,2.37
2023-01-26T21:11:45.299Z,2.54
2023-01-26T21:14:13.572Z,2.46
2023-01-26T21:16:40.572Z,2.51
2023-01-26T21:19:07.309Z,2.50
2023-01-26T21:21:33.983Z,2.54
2023-01-26T21:24:00.728Z,2.42
2023-01-26T21:26:30.487Z,2.41
2023-01-26T21:28:59.681Z,2.41
2023-01-26T21:31:30.302Z,2.43
2023-01-26T21:33:58.539Z,2.40
2023-01-26T21:36:27.465Z,2.38
2023-01-26T21:38:56.355Z,2.37
2023-01-26T21:41:45.579Z,2.42
2023-01-26T21:44:24.822Z,2.31
2023-01-26T21:46:54.346Z,2.11
2023-01-26T21:49:21.744Z,2.35
2023-01-26T21:52:07.081Z,2.39
2023-01-26T21:54:34.793Z,2.42
2023-01-26T21:57:02.795Z,2.45
2023-01-26T21:59:30.589Z,2.40
2023-01-26T22:01:58.407Z,2.54
2023-01-26T22:04:28.748Z,2.18
2023-01-26T22:06:56.620Z,2.44
2023-01-26T22:09:24.132Z,2.39
2023-01-26T22:11:51.714Z,2.44
2023-01-26T22:14:23.546Z,2.48
2023-01-26T22:16:50.295Z,2.57
2023-01-26T22:19:17.208Z,2.43
2023-01-26T22:21:44.745Z,2.52
2023-01-26T22:24:14.298Z,2.61
2023-01-26T22:26:41.781Z,2.60
2023-01-26T22:29:10.909Z,2.70
2023-01-26T22:31:37.613Z,2.68
2023-01-26T22:34:04.347Z,2.62
2023-01-26T22:36:31.327Z,2.50
2023-01-26T22:38:59.665Z,2.61
2023-01-26T22:41:28.529Z,2.43
2023-01-26T22:43:57.766Z,2.62
2023-01-26T22:46:25.866Z,2.58
2023-01-26T22:48:53.313Z,2.74
2023-01-26T22:51:22.589Z,2.61
2023-01-26T22:53:50.772Z,2.50
2023-01-26T22:56:18.235Z,2.42
2023-01-26T22:58:57.756Z,2.65
2023-01-26T23:01:27.782Z,2.75
2023-01-26T23:03:55.540Z,2.66
2023-01-26T23:06:22.526Z,2.60
2023-01-26T23:08:49.699Z,2.57
2023-01-26T23:11:34.600Z,2.51
2023-01-26T23:14:01.267Z,2.40
2023-01-26T23:16:28.429Z,2.40
2023-01-26T23:18:57.443Z,2.32
2023-01-26T23:21:25.597Z,2.44
2023-01-26T23:23:52.552Z,2.54
2023-01-26T23:26:20.434Z,2.43
2023-01-26T23:28:47.102Z,2.49
2023-01-26T23:31:16.058Z,2.58
2023-01-26T23:33:43.166Z,2.48
2023-01-26T23:36:11.524Z,2.50
2023-01-26T23:38:38.293Z,2.50
2023-01-26T23:41:05.499Z,2.51
2023-01-26T23:43:32.321Z,2.42
2023-01-26T23:45:59.101Z,2.36
2023-01-26T23:48:26.739Z,2.41
2023-01-26T23:51:01.616Z,2.45
2023-01-26T23:53:29.664Z,2.54
2023-01-26T23:55:58.666Z,2.42
2023-01-26T23:58:25.362Z,2.45
